sensor_id;sensor_type;location;lat;lon;timestamp;P1;durP1;ratioP1;P2;durP2;ratioP2
53245;SDS011;39569;51.090;-1.786;2022-10-26T00:01:30;23.48;;;6.07;;
53245;SDS011;39569;51.090;-1.786;2022-10-26T00:03:57;15.38;;;5.68;;
53245;SDS011;39569;51.090;-1.786;2022-10-26T00:06:24;20.23;;;6.25;;
53245;SDS011;39569;51.090;-1.786;2022-10-26T00:08:53;25.27;;;6.32;;
53245;SDS011;39569;51.090;-1.786;2022-10-26T00:11:21;24.77;;;5.75;;
53245;SDS011;39569;51.090;-1.786;2022-10-26T00:13:48;17.55;;;5.95;;
53245;SDS011;39569;51.090;-1.786;2022-10-26T00:16:17;19.67;;;5.28;;
53245;SDS011;39569;51.090;-1.786;2022-10-26T00:18:45;20.98;;;7.00;;
53245;SDS011;39569;51.090;-1.786;2022-10-26T00:21:12;28.40;;;6.75;;
53245;SDS011;39569;51.090;-1.786;2022-10-26T00:23:40;37.10;;;8.52;;
53245;SDS011;39569;51.090;-1.786;2022-10-26T00:26:07;17.42;;;6.65;;
53245;SDS011;39569;51.090;-1.786;2022-10-26T00:28:34;16.80;;;6.22;;
53245;SDS011;39569;51.090;-1.786;2022-10-26T00:31:01;22.60;;;5.65;;
53245;SDS011;39569;51.090;-1.786;2022-10-26T00:33:31;21.58;;;6.20;;
53245;SDS011;39569;51.090;-1.786;2022-10-26T00:35:58;30.85;;;7.78;;
53245;SDS011;39569;51.090;-1.786;2022-10-26T00:38:25;13.63;;;4.05;;
53245;SDS011;39569;51.090;-1.786;2022-10-26T00:40:51;16.08;;;5.95;;
53245;SDS011;39569;51.090;-1.786;2022-10-26T00:43:32;20.52;;;5.43;;
53245;SDS011;39569;51.090;-1.786;2022-10-26T00:46:00;20.73;;;6.70;;
53245;SDS011;39569;51.090;-1.786;2022-10-26T00:48:33;25.58;;;5.97;;
53245;SDS011;39569;51.090;-1.786;2022-10-26T00:51:03;27.20;;;6.45;;
53245;SDS011;39569;51.090;-1.786;2022-10-26T00:53:34;10.80;;;4.93;;
53245;SDS011;39569;51.090;-1.786;2022-10-26T00:56:01;26.38;;;6.93;;
53245;SDS011;39569;51.090;-1.786;2022-10-26T00:58:29;18.98;;;5.10;;
53245;SDS011;39569;51.090;-1.786;2022-10-26T01:00:57;20.45;;;5.35;;
53245;SDS011;39569;51.090;-1.786;2022-10-26T01:03:24;18.23;;;6.38;;
53245;SDS011;39569;51.090;-1.786;2022-10-26T01:05:54;18.35;;;4.97;;
53245;SDS011;39569;51.090;-1.786;2022-10-26T01:08:22;20.80;;;7.07;;
53245;SDS011;39569;51.090;-1.786;2022-10-26T01:10:52;19.92;;;5.03;;
53245;SDS011;39569;51.090;-1.786;2022-10-26T01:13:19;14.85;;;4.40;;
53245;SDS011;39569;51.090;-1.786;2022-10-26T01:15:47;16.05;;;4.80;;
53245;SDS011;39569;51.090;-1.786;2022-10-26T01:18:22;13.35;;;4.70;;
53245;SDS011;39569;51.090;-1.786;2022-10-26T01:21:03;16.08;;;5.82;;
53245;SDS011;39569;51.090;-1.786;2022-10-26T01:23:47;23.27;;;6.10;;
53245;SDS011;39569;51.090;-1.786;2022-10-26T01:26:42;27.27;;;6.88;;
53245;SDS011;39569;51.090;-1.786;2022-10-26T01:32:22;17.48;;;6.80;;
53245;SDS011;39569;51.090;-1.786;2022-10-26T01:34:53;20.63;;;6.90;;
53245;SDS011;39569;51.090;-1.786;2022-10-26T01:37:25;20.50;;;5.35;;
53245;SDS011;39569;51.090;-1.786;2022-10-26T01:39:57;21.58;;;6.03;;
53245;SDS011;39569;51.090;-1.786;2022-10-26T01:42:27;29.15;;;6.78;;
53245;SDS011;39569;51.090;-1.786;2022-10-26T01:44:57;23.90;;;6.97;;
53245;SDS011;39569;51.090;-1.786;2022-10-26T01:47:29;20.67;;;6.93;;
53245;SDS011;39569;51.090;-1.786;2022-10-26T01:49:59;16.38;;;5.50;;
53245;SDS011;39569;51.090;-1.786;2022-10-26T01:52:28;19.42;;;6.40;;
53245;SDS011;39569;51.090;-1.786;2022-10-26T01:54:59;28.42;;;6.70;;
53245;SDS011;39569;51.090;-1.786;2022-10-26T01:57:26;22.65;;;6.80;;
53245;SDS011;39569;51.090;-1.786;2022-10-26T02:00:03;21.38;;;6.43;;
53245;SDS011;39569;51.090;-1.786;2022-10-26T02:02:39;22.65;;;5.75;;
53245;SDS011;39569;51.090;-1.786;2022-10-26T02:08:05;38.47;;;8.30;;
53245;SDS011;39569;51.090;-1.786;2022-10-26T02:10:50;29.85;;;6.68;;
53245;SDS011;39569;51.090;-1.786;2022-10-26T02:13:25;18.77;;;6.47;;
53245;SDS011;39569;51.090;-1.786;2022-10-26T02:15:59;42.72;;;8.07;;
53245;SDS011;39569;51.090;-1.786;2022-10-26T02:18:36;29.38;;;9.63;;
53245;SDS011;39569;51.090;-1.786;2022-10-26T02:21:09;23.35;;;6.97;;
53245;SDS011;39569;51.090;-1.786;2022-10-26T02:23:41;18.10;;;6.47;;
53245;SDS011;39569;51.090;-1.786;2022-10-26T02:26:11;17.33;;;7.07;;
53245;SDS011;39569;51.090;-1.786;2022-10-26T02:28:43;15.60;;;7.13;;
53245;SDS011;39569;51.090;-1.786;2022-10-26T02:31:13;16.08;;;5.40;;
53245;SDS011;39569;51.090;-1.786;2022-10-26T02:33:43;26.00;;;6.93;;
53245;SDS011;39569;51.090;-1.786;2022-10-26T02:36:21;28.92;;;6.22;;
53245;SDS011;39569;51.090;-1.786;2022-10-26T02:38:52;25.50;;;7.13;;
53245;SDS011;39569;51.090;-1.786;2022-10-26T02:41:21;25.88;;;7.32;;
53245;SDS011;39569;51.090;-1.786;2022-10-26T02:43:51;24.52;;;7.18;;
53245;SDS011;39569;51.090;-1.786;2022-10-26T02:46:22;24.50;;;7.35;;
53245;SDS011;39569;51.090;-1.786;2022-10-26T02:48:53;26.38;;;7.45;;
53245;SDS011;39569;51.090;-1.786;2022-10-26T02:51:22;20.77;;;6.30;;
53245;SDS011;39569;51.090;-1.786;2022-10-26T02:53:56;18.38;;;7.07;;
53245;SDS011;39569;51.090;-1.786;2022-10-26T02:56:27;15.20;;;5.97;;
53245;SDS011;39569;51.090;-1.786;2022-10-26T02:59:00;17.67;;;5.85;;
53245;SDS011;39569;51.090;-1.786;2022-10-26T03:01:31;18.55;;;6.57;;
53245;SDS011;39569;51.090;-1.786;2022-10-26T03:04:01;19.15;;;5.82;;
53245;SDS011;39569;51.090;-1.786;2022-10-26T03:06:28;35.95;;;7.05;;
53245;SDS011;39569;51.090;-1.786;2022-10-26T03:08:55;44.38;;;6.60;;
53245;SDS011;39569;51.090;-1.786;2022-10-26T03:11:22;18.83;;;5.88;;
53245;SDS011;39569;51.090;-1.786;2022-10-26T03:13:49;31.42;;;5.95;;
53245;SDS011;39569;51.090;-1.786;2022-10-26T03:16:16;29.83;;;6.70;;
53245;SDS011;39569;51.090;-1.786;2022-10-26T03:18:42;11.38;;;4.03;;
53245;SDS011;39569;51.090;-1.786;2022-10-26T03:21:10;25.52;;;5.45;;
53245;SDS011;39569;51.090;-1.786;2022-10-26T03:23:37;21.73;;;6.13;;
53245;SDS011;39569;51.090;-1.786;2022-10-26T03:26:04;17.17;;;4.32;;
53245;SDS011;39569;51.090;-1.786;2022-10-26T03:28:31;19.85;;;5.50;;
53245;SDS011;39569;51.090;-1.786;2022-10-26T03:30:58;25.63;;;5.15;;
53245;SDS011;39569;51.090;-1.786;2022-10-26T03:33:24;29.80;;;6.65;;
53245;SDS011;39569;51.090;-1.786;2022-10-26T03:35:54;16.77;;;4.93;;
53245;SDS011;39569;51.090;-1.786;2022-10-26T03:38:23;24.85;;;6.90;;
53245;SDS011;39569;51.090;-1.786;2022-10-26T03:40:50;27.98;;;4.95;;
53245;SDS011;39569;51.090;-1.786;2022-10-26T03:43:17;27.45;;;6.90;;
53245;SDS011;39569;51.090;-1.786;2022-10-26T03:45:44;18.90;;;5.07;;
53245;SDS011;39569;51.090;-1.786;2022-10-26T03:48:10;13.73;;;5.30;;
53245;SDS011;39569;51.090;-1.786;2022-10-26T03:50:37;36.50;;;6.93;;
53245;SDS011;39569;51.090;-1.786;2022-10-26T03:53:04;21.15;;;4.85;;
53245;SDS011;39569;51.090;-1.786;2022-10-26T03:55:32;18.65;;;5.70;;
53245;SDS011;39569;51.090;-1.786;2022-10-26T03:57:59;22.45;;;5.35;;
53245;SDS011;39569;51.090;-1.786;2022-10-26T04:00:26;18.70;;;5.72;;
53245;SDS011;39569;51.090;-1.786;2022-10-26T04:02:53;30.90;;;6.25;;
53245;SDS011;39569;51.090;-1.786;2022-10-26T04:05:21;23.85;;;6.53;;
53245;SDS011;39569;51.090;-1.786;2022-10-26T04:07:51;23.73;;;6.07;;
53245;SDS011;39569;51.090;-1.786;2022-10-26T04:10:19;35.03;;;5.82;;
53245;SDS011;39569;51.090;-1.786;2022-10-26T04:12:47;33.35;;;6.90;;
53245;SDS011;39569;51.090;-1.786;2022-10-26T04:15:15;19.80;;;5.35;;
53245;SDS011;39569;51.090;-1.786;2022-10-26T04:17:41;32.00;;;7.88;;
53245;SDS011;39569;51.090;-1.786;2022-10-26T04:20:09;26.25;;;8.20;;
53245;SDS011;39569;51.090;-1.786;2022-10-26T04:22:36;25.50;;;6.30;;
53245;SDS011;39569;51.090;-1.786;2022-10-26T04:25:03;28.73;;;6.82;;
53245;SDS011;39569;51.090;-1.786;2022-10-26T04:27:31;22.58;;;5.70;;
53245;SDS011;39569;51.090;-1.786;2022-10-26T04:29:59;30.98;;;8.73;;
53245;SDS011;39569;51.090;-1.786;2022-10-26T04:32:26;25.35;;;6.47;;
53245;SDS011;39569;51.090;-1.786;2022-10-26T04:34:53;25.77;;;6.10;;
53245;SDS011;39569;51.090;-1.786;2022-10-26T04:37:19;19.13;;;5.90;;
53245;SDS011;39569;51.090;-1.786;2022-10-26T04:39:46;18.02;;;6.60;;
53245;SDS011;39569;51.090;-1.786;2022-10-26T04:42:13;32.35;;;5.32;;
53245;SDS011;39569;51.090;-1.786;2022-10-26T04:44:39;24.63;;;6.28;;
53245;SDS011;39569;51.090;-1.786;2022-10-26T04:47:08;21.88;;;5.53;;
53245;SDS011;39569;51.090;-1.786;2022-10-26T04:49:34;29.08;;;6.13;;
53245;SDS011;39569;51.090;-1.786;2022-10-26T04:52:01;30.50;;;5.57;;
53245;SDS011;39569;51.090;-1.786;2022-10-26T04:54:28;27.10;;;6.70;;
53245;SDS011;39569;51.090;-1.786;2022-10-26T04:56:55;21.27;;;4.97;;
53245;SDS011;39569;51.090;-1.786;2022-10-26T04:59:21;19.73;;;6.28;;
53245;SDS011;39569;51.090;-1.786;2022-10-26T05:01:48;22.92;;;6.28;;
53245;SDS011;39569;51.090;-1.786;2022-10-26T05:04:16;27.05;;;5.57;;
53245;SDS011;39569;51.090;-1.786;2022-10-26T05:06:43;29.77;;;8.48;;
53245;SDS011;39569;51.090;-1.786;2022-10-26T05:09:10;34.95;;;7.45;;
53245;SDS011;39569;51.090;-1.786;2022-10-26T05:11:37;30.77;;;7.65;;
53245;SDS011;39569;51.090;-1.786;2022-10-26T05:14:03;30.13;;;6.32;;
53245;SDS011;39569;51.090;-1.786;2022-10-26T05:16:30;34.95;;;7.45;;
53245;SDS011;39569;51.090;-1.786;2022-10-26T05:18:57;29.30;;;6.40;;
53245;SDS011;39569;51.090;-1.786;2022-10-26T05:21:25;32.70;;;7.68;;
53245;SDS011;39569;51.090;-1.786;2022-10-26T05:23:52;25.63;;;6.28;;
53245;SDS011;39569;51.090;-1.786;2022-10-26T05:26:19;39.05;;;6.80;;
53245;SDS011;39569;51.090;-1.786;2022-10-26T05:28:46;27.48;;;6.20;;
53245;SDS011;39569;51.090;-1.786;2022-10-26T05:31:13;35.30;;;6.43;;
53245;SDS011;39569;51.090;-1.786;2022-10-26T05:33:40;29.10;;;7.88;;
53245;SDS011;39569;51.090;-1.786;2022-10-26T05:36:07;29.73;;;6.95;;
53245;SDS011;39569;51.090;-1.786;2022-10-26T05:38:35;26.65;;;7.03;;
53245;SDS011;39569;51.090;-1.786;2022-10-26T05:41:02;30.77;;;7.22;;
53245;SDS011;39569;51.090;-1.786;2022-10-26T05:43:29;27.02;;;6.97;;
53245;SDS011;39569;51.090;-1.786;2022-10-26T05:45:55;28.05;;;5.97;;
53245;SDS011;39569;51.090;-1.786;2022-10-26T05:48:22;36.40;;;7.33;;
53245;SDS011;39569;51.090;-1.786;2022-10-26T05:50:49;29.05;;;6.50;;
53245;SDS011;39569;51.090;-1.786;2022-10-26T05:53:16;33.44;;;7.86;;
53245;SDS011;39569;51.090;-1.786;2022-10-26T05:55:45;45.08;;;8.15;;
53245;SDS011;39569;51.090;-1.786;2022-10-26T05:58:13;25.45;;;7.18;;
53245;SDS011;39569;51.090;-1.786;2022-10-26T06:00:43;24.42;;;6.72;;
53245;SDS011;39569;51.090;-1.786;2022-10-26T06:03:24;33.20;;;7.25;;
53245;SDS011;39569;51.090;-1.786;2022-10-26T06:06:02;36.95;;;8.55;;
53245;SDS011;39569;51.090;-1.786;2022-10-26T06:08:30;25.83;;;7.32;;
53245;SDS011;39569;51.090;-1.786;2022-10-26T06:10:59;36.15;;;7.60;;
53245;SDS011;39569;51.090;-1.786;2022-10-26T06:13:27;39.55;;;6.25;;
53245;SDS011;39569;51.090;-1.786;2022-10-26T06:16:02;29.98;;;7.22;;
53245;SDS011;39569;51.090;-1.786;2022-10-26T06:18:46;34.10;;;6.32;;
53245;SDS011;39569;51.090;-1.786;2022-10-26T06:21:29;36.30;;;7.53;;
53245;SDS011;39569;51.090;-1.786;2022-10-26T06:24:07;22.85;;;5.88;;
53245;SDS011;39569;51.090;-1.786;2022-10-26T06:26:42;35.95;;;7.43;;
53245;SDS011;39569;51.090;-1.786;2022-10-26T06:29:18;32.90;;;5.95;;
53245;SDS011;39569;51.090;-1.786;2022-10-26T06:31:53;25.08;;;7.00;;
53245;SDS011;39569;51.090;-1.786;2022-10-26T06:34:22;22.80;;;7.57;;
53245;SDS011;39569;51.090;-1.786;2022-10-26T06:36:53;33.38;;;6.55;;
53245;SDS011;39569;51.090;-1.786;2022-10-26T06:39:21;29.08;;;6.70;;
53245;SDS011;39569;51.090;-1.786;2022-10-26T06:41:52;30.08;;;8.52;;
53245;SDS011;39569;51.090;-1.786;2022-10-26T06:44:21;32.67;;;7.35;;
53245;SDS011;39569;51.090;-1.786;2022-10-26T06:46:50;25.60;;;6.70;;
53245;SDS011;39569;51.090;-1.786;2022-10-26T06:49:26;35.55;;;7.00;;
53245;SDS011;39569;51.090;-1.786;2022-10-26T06:51:57;22.80;;;6.63;;
53245;SDS011;39569;51.090;-1.786;2022-10-26T06:54:27;44.45;;;7.82;;
53245;SDS011;39569;51.090;-1.786;2022-10-26T06:57:10;35.20;;;6.45;;
53245;SDS011;39569;51.090;-1.786;2022-10-26T06:59:41;33.95;;;7.82;;
53245;SDS011;39569;51.090;-1.786;2022-10-26T07:02:10;31.10;;;6.82;;
53245;SDS011;39569;51.090;-1.786;2022-10-26T07:04:38;36.90;;;10.15;;
53245;SDS011;39569;51.090;-1.786;2022-10-26T07:07:05;30.95;;;5.68;;
53245;SDS011;39569;51.090;-1.786;2022-10-26T07:09:32;36.28;;;7.38;;
53245;SDS011;39569;51.090;-1.786;2022-10-26T07:11:59;31.30;;;6.97;;
53245;SDS011;39569;51.090;-1.786;2022-10-26T07:14:27;32.60;;;7.13;;
53245;SDS011;39569;51.090;-1.786;2022-10-26T07:16:54;46.08;;;8.23;;
53245;SDS011;39569;51.090;-1.786;2022-10-26T07:19:21;41.05;;;6.93;;
53245;SDS011;39569;51.090;-1.786;2022-10-26T07:21:48;38.08;;;7.60;;
53245;SDS011;39569;51.090;-1.786;2022-10-26T07:24:15;45.85;;;9.20;;
53245;SDS011;39569;51.090;-1.786;2022-10-26T07:26:41;27.92;;;7.65;;
53245;SDS011;39569;51.090;-1.786;2022-10-26T07:29:08;37.55;;;8.02;;
53245;SDS011;39569;51.090;-1.786;2022-10-26T07:31:36;33.25;;;6.00;;
53245;SDS011;39569;51.090;-1.786;2022-10-26T07:34:03;23.20;;;6.88;;
53245;SDS011;39569;51.090;-1.786;2022-10-26T07:36:30;37.10;;;8.38;;
53245;SDS011;39569;51.090;-1.786;2022-10-26T07:38:57;35.90;;;8.63;;
53245;SDS011;39569;51.090;-1.786;2022-10-26T07:41:24;22.33;;;5.47;;
53245;SDS011;39569;51.090;-1.786;2022-10-26T07:43:51;33.65;;;6.30;;
53245;SDS011;39569;51.090;-1.786;2022-10-26T07:46:18;26.33;;;5.07;;
53245;SDS011;39569;51.090;-1.786;2022-10-26T07:48:46;24.73;;;5.07;;
53245;SDS011;39569;51.090;-1.786;2022-10-26T07:51:13;18.75;;;4.68;;
53245;SDS011;39569;51.090;-1.786;2022-10-26T07:53:40;14.48;;;3.33;;
53245;SDS011;39569;51.090;-1.786;2022-10-26T07:56:07;8.80;;;2.53;;
53245;SDS011;39569;51.090;-1.786;2022-10-26T07:58:35;12.68;;;3.63;;
53245;SDS011;39569;51.090;-1.786;2022-10-26T08:01:04;13.82;;;3.85;;
53245;SDS011;39569;51.090;-1.786;2022-10-26T08:03:32;9.48;;;3.40;;
53245;SDS011;39569;51.090;-1.786;2022-10-26T08:06:00;17.80;;;3.42;;
53245;SDS011;39569;51.090;-1.786;2022-10-26T08:08:29;17.20;;;3.92;;
53245;SDS011;39569;51.090;-1.786;2022-10-26T08:10:55;11.52;;;3.58;;
53245;SDS011;39569;51.090;-1.786;2022-10-26T08:13:24;16.27;;;4.20;;
53245;SDS011;39569;51.090;-1.786;2022-10-26T08:15:55;17.50;;;3.15;;
53245;SDS011;39569;51.090;-1.786;2022-10-26T08:18:22;19.10;;;4.30;;
53245;SDS011;39569;51.090;-1.786;2022-10-26T08:20:49;12.40;;;4.00;;
53245;SDS011;39569;51.090;-1.786;2022-10-26T08:23:17;20.83;;;4.13;;
53245;SDS011;39569;51.090;-1.786;2022-10-26T08:25:43;13.30;;;3.70;;
53245;SDS011;39569;51.090;-1.786;2022-10-26T08:28:10;21.17;;;4.22;;
53245;SDS011;39569;51.090;-1.786;2022-10-26T08:30:37;11.13;;;3.85;;
53245;SDS011;39569;51.090;-1.786;2022-10-26T08:33:04;10.07;;;3.35;;
53245;SDS011;39569;51.090;-1.786;2022-10-26T08:35:33;10.70;;;4.20;;
53245;SDS011;39569;51.090;-1.786;2022-10-26T08:38:00;17.88;;;5.53;;
53245;SDS011;39569;51.090;-1.786;2022-10-26T08:40:29;18.88;;;4.93;;
53245;SDS011;39569;51.090;-1.786;2022-10-26T08:42:59;18.60;;;4.30;;
53245;SDS011;39569;51.090;-1.786;2022-10-26T08:45:31;19.95;;;4.07;;
53245;SDS011;39569;51.090;-1.786;2022-10-26T08:48:04;20.48;;;5.38;;
53245;SDS011;39569;51.090;-1.786;2022-10-26T08:50:36;27.85;;;6.10;;
53245;SDS011;39569;51.090;-1.786;2022-10-26T08:53:10;22.23;;;4.75;;
53245;SDS011;39569;51.090;-1.786;2022-10-26T08:55:45;24.33;;;6.70;;
53245;SDS011;39569;51.090;-1.786;2022-10-26T08:58:17;28.02;;;5.30;;
53245;SDS011;39569;51.090;-1.786;2022-10-26T09:00:49;43.92;;;6.75;;
53245;SDS011;39569;51.090;-1.786;2022-10-26T09:03:16;21.08;;;6.40;;
53245;SDS011;39569;51.090;-1.786;2022-10-26T09:05:46;33.28;;;6.70;;
53245;SDS011;39569;51.090;-1.786;2022-10-26T09:08:26;33.55;;;7.22;;
53245;SDS011;39569;51.090;-1.786;2022-10-26T09:11:04;28.77;;;8.15;;
53245;SDS011;39569;51.090;-1.786;2022-10-26T09:13:41;37.55;;;7.35;;
53245;SDS011;39569;51.090;-1.786;2022-10-26T09:16:22;53.03;;;8.10;;
53245;SDS011;39569;51.090;-1.786;2022-10-26T09:18:56;31.08;;;8.23;;
53245;SDS011;39569;51.090;-1.786;2022-10-26T09:21:39;38.78;;;9.13;;
53245;SDS011;39569;51.090;-1.786;2022-10-26T09:24:12;37.05;;;8.07;;
53245;SDS011;39569;51.090;-1.786;2022-10-26T09:26:47;24.65;;;8.00;;
53245;SDS011;39569;51.090;-1.786;2022-10-26T09:29:19;26.55;;;7.57;;
53245;SDS011;39569;51.090;-1.786;2022-10-26T09:31:52;20.17;;;6.68;;
53245;SDS011;39569;51.090;-1.786;2022-10-26T09:34:26;23.42;;;7.45;;
53245;SDS011;39569;51.090;-1.786;2022-10-26T09:36:56;19.08;;;6.90;;
53245;SDS011;39569;51.090;-1.786;2022-10-26T09:39:34;27.40;;;8.20;;
53245;SDS011;39569;51.090;-1.786;2022-10-26T09:42:10;20.92;;;7.07;;
53245;SDS011;39569;51.090;-1.786;2022-10-26T09:44:43;25.20;;;8.75;;
53245;SDS011;39569;51.090;-1.786;2022-10-26T09:47:19;32.03;;;8.40;;
53245;SDS011;39569;51.090;-1.786;2022-10-26T09:49:55;28.55;;;7.70;;
53245;SDS011;39569;51.090;-1.786;2022-10-26T09:52:26;28.63;;;8.23;;
53245;SDS011;39569;51.090;-1.786;2022-10-26T09:54:53;34.85;;;8.82;;
53245;SDS011;39569;51.090;-1.786;2022-10-26T09:57:21;33.17;;;10.45;;
53245;SDS011;39569;51.090;-1.786;2022-10-26T09:59:49;26.00;;;7.25;;
53245;SDS011;39569;51.090;-1.786;2022-10-26T10:02:36;30.05;;;9.52;;
53245;SDS011;39569;51.090;-1.786;2022-10-26T10:05:21;39.53;;;11.35;;
53245;SDS011;39569;51.090;-1.786;2022-10-26T10:07:50;23.73;;;10.07;;
53245;SDS011;39569;51.090;-1.786;2022-10-26T10:10:17;39.40;;;11.07;;
53245;SDS011;39569;51.090;-1.786;2022-10-26T10:12:47;31.85;;;8.95;;
53245;SDS011;39569;51.090;-1.786;2022-10-26T10:15:17;29.38;;;10.02;;
53245;SDS011;39569;51.090;-1.786;2022-10-26T10:17:47;38.63;;;7.88;;
53245;SDS011;39569;51.090;-1.786;2022-10-26T10:20:18;31.95;;;10.20;;
53245;SDS011;39569;51.090;-1.786;2022-10-26T10:22:54;30.98;;;9.95;;
53245;SDS011;39569;51.090;-1.786;2022-10-26T10:25:22;36.40;;;8.27;;
53245;SDS011;39569;51.090;-1.786;2022-10-26T10:27:59;30.20;;;9.02;;
53245;SDS011;39569;51.090;-1.786;2022-10-26T10:30:27;26.20;;;10.00;;
53245;SDS011;39569;51.090;-1.786;2022-10-26T10:33:06;45.42;;;11.60;;
53245;SDS011;39569;51.090;-1.786;2022-10-26T10:35:36;33.45;;;10.05;;
53245;SDS011;39569;51.090;-1.786;2022-10-26T10:38:05;38.08;;;11.18;;
53245;SDS011;39569;51.090;-1.786;2022-10-26T10:40:38;34.90;;;9.75;;
53245;SDS011;39569;51.090;-1.786;2022-10-26T10:43:10;35.03;;;11.15;;
53245;SDS011;39569;51.090;-1.786;2022-10-26T10:45:39;30.15;;;9.43;;
53245;SDS011;39569;51.090;-1.786;2022-10-26T10:48:13;46.38;;;10.93;;
53245;SDS011;39569;51.090;-1.786;2022-10-26T10:50:49;46.55;;;9.68;;
53245;SDS011;39569;51.090;-1.786;2022-10-26T10:53:19;58.90;;;13.90;;
53245;SDS011;39569;51.090;-1.786;2022-10-26T10:56:05;41.97;;;9.85;;
53245;SDS011;39569;51.090;-1.786;2022-10-26T10:58:45;44.83;;;11.95;;
53245;SDS011;39569;51.090;-1.786;2022-10-26T11:01:20;42.65;;;11.77;;
53245;SDS011;39569;51.090;-1.786;2022-10-26T11:06:43;30.13;;;9.32;;
53245;SDS011;39569;51.090;-1.786;2022-10-26T11:09:13;53.80;;;11.13;;
53245;SDS011;39569;51.090;-1.786;2022-10-26T11:11:44;60.10;;;10.95;;
53245;SDS011;39569;51.090;-1.786;2022-10-26T11:14:15;44.28;;;10.68;;
53245;SDS011;39569;51.090;-1.786;2022-10-26T11:16:46;40.15;;;10.43;;
53245;SDS011;39569;51.090;-1.786;2022-10-26T11:19:19;36.00;;;9.32;;
53245;SDS011;39569;51.090;-1.786;2022-10-26T11:21:51;35.88;;;10.60;;
53245;SDS011;39569;51.090;-1.786;2022-10-26T11:24:20;37.60;;;9.30;;
53245;SDS011;39569;51.090;-1.786;2022-10-26T11:26:51;38.65;;;8.88;;
53245;SDS011;39569;51.090;-1.786;2022-10-26T11:29:30;41.15;;;10.27;;
53245;SDS011;39569;51.090;-1.786;2022-10-26T11:32:04;49.67;;;12.60;;
53245;SDS011;39569;51.090;-1.786;2022-10-26T11:34:40;28.17;;;7.68;;
53245;SDS011;39569;51.090;-1.786;2022-10-26T11:37:14;36.63;;;11.60;;
53245;SDS011;39569;51.090;-1.786;2022-10-26T11:39:52;47.03;;;10.83;;
53245;SDS011;39569;51.090;-1.786;2022-10-26T11:42:27;37.80;;;10.75;;
53245;SDS011;39569;51.090;-1.786;2022-10-26T11:45:03;30.97;;;7.73;;
53245;SDS011;39569;51.090;-1.786;2022-10-26T11:47:39;40.30;;;12.30;;
53245;SDS011;39569;51.090;-1.786;2022-10-26T11:50:12;34.63;;;10.60;;
53245;SDS011;39569;51.090;-1.786;2022-10-26T11:52:45;44.47;;;9.10;;
53245;SDS011;39569;51.090;-1.786;2022-10-26T11:55:14;37.60;;;9.25;;
53245;SDS011;39569;51.090;-1.786;2022-10-26T11:57:43;30.45;;;10.55;;
53245;SDS011;39569;51.090;-1.786;2022-10-26T12:00:15;41.55;;;10.07;;
53245;SDS011;39569;51.090;-1.786;2022-10-26T12:02:45;36.45;;;9.50;;
53245;SDS011;39569;51.090;-1.786;2022-10-26T12:05:16;31.10;;;10.70;;
53245;SDS011;39569;51.090;-1.786;2022-10-26T12:07:47;26.95;;;9.10;;
53245;SDS011;39569;51.090;-1.786;2022-10-26T12:10:24;27.08;;;8.65;;
53245;SDS011;39569;51.090;-1.786;2022-10-26T12:12:56;32.80;;;9.45;;
53245;SDS011;39569;51.090;-1.786;2022-10-26T12:15:33;43.17;;;9.45;;
53245;SDS011;39569;51.090;-1.786;2022-10-26T12:18:10;47.97;;;11.70;;
53245;SDS011;39569;51.090;-1.786;2022-10-26T12:20:55;34.90;;;9.68;;
53245;SDS011;39569;51.090;-1.786;2022-10-26T12:23:29;25.25;;;9.68;;
53245;SDS011;39569;51.090;-1.786;2022-10-26T12:32:04;39.53;;;9.35;;
53245;SDS011;39569;51.090;-1.786;2022-10-26T12:35:32;35.08;;;10.30;;
53245;SDS011;39569;51.090;-1.786;2022-10-26T12:41:24;39.55;;;12.32;;
53245;SDS011;39569;51.090;-1.786;2022-10-26T12:43:55;31.95;;;10.15;;
53245;SDS011;39569;51.090;-1.786;2022-10-26T12:55:32;37.95;;;10.85;;
53245;SDS011;39569;51.090;-1.786;2022-10-26T12:58:29;33.50;;;10.07;;
53245;SDS011;39569;51.090;-1.786;2022-10-26T13:03:58;49.97;;;11.65;;
53245;SDS011;39569;51.090;-1.786;2022-10-26T13:06:44;45.25;;;10.32;;
53245;SDS011;39569;51.090;-1.786;2022-10-26T13:09:21;25.60;;;8.30;;
53245;SDS011;39569;51.090;-1.786;2022-10-26T13:11:53;37.03;;;9.57;;
53245;SDS011;39569;51.090;-1.786;2022-10-26T13:14:23;46.67;;;9.68;;
53245;SDS011;39569;51.090;-1.786;2022-10-26T13:16:52;42.15;;;9.98;;
53245;SDS011;39569;51.090;-1.786;2022-10-26T13:19:23;33.88;;;8.32;;
53245;SDS011;39569;51.090;-1.786;2022-10-26T13:21:52;42.10;;;10.45;;
53245;SDS011;39569;51.090;-1.786;2022-10-26T13:24:25;39.95;;;8.98;;
53245;SDS011;39569;51.090;-1.786;2022-10-26T13:35:18;35.38;;;10.82;;
53245;SDS011;39569;51.090;-1.786;2022-10-26T13:37:47;33.50;;;9.85;;
53245;SDS011;39569;51.090;-1.786;2022-10-26T13:40:19;27.38;;;9.00;;
53245;SDS011;39569;51.090;-1.786;2022-10-26T13:42:48;58.03;;;10.63;;
53245;SDS011;39569;51.090;-1.786;2022-10-26T13:45:19;40.15;;;10.40;;
53245;SDS011;39569;51.090;-1.786;2022-10-26T13:47:51;40.60;;;10.25;;
53245;SDS011;39569;51.090;-1.786;2022-10-26T13:50:24;34.70;;;11.38;;
53245;SDS011;39569;51.090;-1.786;2022-10-26T13:52:53;34.95;;;8.63;;
53245;SDS011;39569;51.090;-1.786;2022-10-26T13:55:25;38.05;;;9.30;;
53245;SDS011;39569;51.090;-1.786;2022-10-26T13:57:59;44.60;;;10.15;;
53245;SDS011;39569;51.090;-1.786;2022-10-26T14:00:35;59.35;;;12.77;;
53245;SDS011;39569;51.090;-1.786;2022-10-26T14:03:11;36.80;;;10.73;;
53245;SDS011;39569;51.090;-1.786;2022-10-26T14:05:40;54.75;;;12.82;;
53245;SDS011;39569;51.090;-1.786;2022-10-26T14:08:10;37.30;;;11.88;;
53245;SDS011;39569;51.090;-1.786;2022-10-26T14:10:45;47.30;;;10.50;;
53245;SDS011;39569;51.090;-1.786;2022-10-26T14:13:14;32.88;;;10.65;;
53245;SDS011;39569;51.090;-1.786;2022-10-26T14:15:43;30.70;;;9.80;;
53245;SDS011;39569;51.090;-1.786;2022-10-26T14:18:13;45.72;;;12.90;;
53245;SDS011;39569;51.090;-1.786;2022-10-26T14:20:46;44.65;;;10.57;;
53245;SDS011;39569;51.090;-1.786;2022-10-26T14:23:25;31.98;;;10.07;;
53245;SDS011;39569;51.090;-1.786;2022-10-26T14:26:00;36.72;;;10.02;;
53245;SDS011;39569;51.090;-1.786;2022-10-26T14:28:27;45.38;;;11.85;;
53245;SDS011;39569;51.090;-1.786;2022-10-26T14:31:09;48.03;;;11.90;;
53245;SDS011;39569;51.090;-1.786;2022-10-26T14:33:37;47.90;;;11.50;;
53245;SDS011;39569;51.090;-1.786;2022-10-26T14:36:04;37.15;;;11.93;;
53245;SDS011;39569;51.090;-1.786;2022-10-26T14:38:34;45.33;;;14.60;;
53245;SDS011;39569;51.090;-1.786;2022-10-26T14:41:08;44.73;;;13.50;;
53245;SDS011;39569;51.090;-1.786;2022-10-26T14:43:36;35.67;;;11.57;;
53245;SDS011;39569;51.090;-1.786;2022-10-26T14:46:04;37.90;;;10.00;;
53245;SDS011;39569;51.090;-1.786;2022-10-26T14:48:32;40.83;;;10.65;;
53245;SDS011;39569;51.090;-1.786;2022-10-26T14:51:05;39.72;;;10.90;;
53245;SDS011;39569;51.090;-1.786;2022-10-26T14:53:36;38.78;;;10.70;;
53245;SDS011;39569;51.090;-1.786;2022-10-26T14:56:05;33.35;;;8.63;;
53245;SDS011;39569;51.090;-1.786;2022-10-26T14:58:46;53.17;;;10.35;;
53245;SDS011;39569;51.090;-1.786;2022-10-26T15:01:24;39.03;;;9.85;;
53245;SDS011;39569;51.090;-1.786;2022-10-26T15:03:56;39.05;;;10.65;;
53245;SDS011;39569;51.090;-1.786;2022-10-26T15:06:40;44.78;;;10.57;;
53245;SDS011;39569;51.090;-1.786;2022-10-26T15:09:28;34.00;;;9.75;;
53245;SDS011;39569;51.090;-1.786;2022-10-26T15:11:58;60.17;;;11.98;;
53245;SDS011;39569;51.090;-1.786;2022-10-26T15:14:28;33.80;;;11.43;;
53245;SDS011;39569;51.090;-1.786;2022-10-26T15:16:55;45.42;;;11.85;;
53245;SDS011;39569;51.090;-1.786;2022-10-26T15:19:23;44.80;;;11.35;;